sensor_id;sensor_type;location;lat;lon;timestamp;pressure;altitude;pressure_sealevel;temperature;humidity
55679;BME280;41573;51.446;-2.018;2023-04-19T00:00:20;101720.22;;;10.48;100.00
55679;BME280;41573;51.446;-2.018;2023-04-19T00:02:46;101718.22;;;10.53;100.00
55679;BME280;41573;51.446;-2.018;2023-04-19T00:05:17;101716.44;;;10.54;100.00
55679;BME280;41573;51.446;-2.018;2023-04-19T00:07:46;101716.50;;;10.52;100.00
55679;BME280;41573;51.446;-2.018;2023-04-19T00:10:11;101720.94;;;10.51;100.00
55679;BME280;41573;51.446;-2.018;2023-04-19T00:12:37;101719.94;;;10.54;100.00
55679;BME280;41573;51.446;-2.018;2023-04-19T00:15:03;101711.03;;;10.55;100.00
55679;BME280;41573;51.446;-2.018;2023-04-19T00:17:30;101706.84;;;10.49;100.00
55679;BME280;41573;51.446;-2.018;2023-04-19T00:19:56;101708.63;;;10.49;100.00
55679;BME280;41573;51.446;-2.018;2023-04-19T00:22:22;101705.91;;;10.50;100.00
55679;BME280;41573;51.446;-2.018;2023-04-19T00:24:48;101704.97;;;10.51;100.00
55679;BME280;41573;51.446;-2.018;2023-04-19T00:27:16;101705.22;;;10.45;100.00
55679;BME280;41573;51.446;-2.018;2023-04-19T00:29:42;101697.03;;;10.50;100.00
55679;BME280;41573;51.446;-2.018;2023-04-19T00:32:08;101691.91;;;10.45;100.00
55679;BME280;41573;51.446;-2.018;2023-04-19T00:34:33;101695.31;;;10.49;100.00
55679;BME280;41573;51.446;-2.018;2023-04-19T00:36:59;101703.25;;;10.50;100.00
55679;BME280;41573;51.446;-2.018;2023-04-19T00:39:25;101693.31;;;10.54;100.00
55679;BME280;41573;51.446;-2.018;2023-04-19T00:41:54;101697.84;;;10.52;100.00
55679;BME280;41573;51.446;-2.018;2023-04-19T00:44:23;101701.16;;;10.57;100.00
55679;BME280;41573;51.446;-2.018;2023-04-19T00:46:51;101690.50;;;10.57;100.00
55679;BME280;41573;51.446;-2.018;2023-04-19T00:49:19;101699.13;;;10.64;100.00
55679;BME280;41573;51.446;-2.018;2023-04-19T00:51:46;101703.03;;;10.55;100.00
55679;BME280;41573;51.446;-2.018;2023-04-19T00:54:12;101695.31;;;10.49;100.00
55679;BME280;41573;51.446;-2.018;2023-04-19T00:56:44;101699.63;;;10.51;100.00
55679;BME280;41573;51.446;-2.018;2023-04-19T00:59:11;101682.09;;;10.46;100.00
55679;BME280;41573;51.446;-2.018;2023-04-19T01:05:23;101697.44;;;10.41;100.00
55679;BME280;41573;51.446;-2.018;2023-04-19T01:07:48;101701.88;;;10.40;100.00
55679;BME280;41573;51.446;-2.018;2023-04-19T01:10:14;101696.69;;;10.37;100.00
55679;BME280;41573;51.446;-2.018;2023-04-19T01:12:40;101703.97;;;10.32;100.00
55679;BME280;41573;51.446;-2.018;2023-04-19T01:15:07;101700.38;;;10.33;100.00
55679;BME280;41573;51.446;-2.018;2023-04-19T01:17:33;101694.19;;;10.32;100.00
55679;BME280;41573;51.446;-2.018;2023-04-19T01:20:03;101709.94;;;10.39;100.00
55679;BME280;41573;51.446;-2.018;2023-04-19T01:22:31;101710.28;;;10.29;100.00
55679;BME280;41573;51.446;-2.018;2023-04-19T01:24:56;101707.50;;;10.32;100.00
55679;BME280;41573;51.446;-2.018;2023-04-19T01:27:22;101719.84;;;10.35;100.00
55679;BME280;41573;51.446;-2.018;2023-04-19T01:29:52;101716.16;;;10.39;100.00
55679;BME280;41573;51.446;-2.018;2023-04-19T01:32:17;101723.19;;;10.40;100.00
55679;BME280;41573;51.446;-2.018;2023-04-19T01:34:44;101721.47;;;10.39;100.00
55679;BME280;41573;51.446;-2.018;2023-04-19T01:37:09;101723.09;;;10.43;100.00
55679;BME280;41573;51.446;-2.018;2023-04-19T01:39:34;101716.94;;;10.41;100.00
55679;BME280;41573;51.446;-2.018;2023-04-19T01:42:00;101723.09;;;10.43;100.00
55679;BME280;41573;51.446;-2.018;2023-04-19T01:44:27;101721.22;;;10.45;100.00
55679;BME280;41573;51.446;-2.018;2023-04-19T01:46:53;101723.88;;;10.45;100.00
55679;BME280;41573;51.446;-2.018;2023-04-19T01:49:19;101713.91;;;10.50;100.00
55679;BME280;41573;51.446;-2.018;2023-04-19T01:51:45;101713.78;;;10.54;100.00
55679;BME280;41573;51.446;-2.018;2023-04-19T01:54:10;101714.75;;;10.51;100.00
55679;BME280;41573;51.446;-2.018;2023-04-19T01:56:36;101704.09;;;10.51;100.00
55679;BME280;41573;51.446;-2.018;2023-04-19T01:59:02;101706.69;;;10.52;100.00
55679;BME280;41573;51.446;-2.018;2023-04-19T02:01:29;101706.84;;;10.49;100.00
55679;BME280;41573;51.446;-2.018;2023-04-19T02:03:56;101698.56;;;10.35;100.00
55679;BME280;41573;51.446;-2.018;2023-04-19T02:06:22;101698.56;;;10.35;100.00
55679;BME280;41573;51.446;-2.018;2023-04-19T02:08:47;101698.44;;;10.38;100.00
55679;BME280;41573;51.446;-2.018;2023-04-19T02:11:13;101696.91;;;10.31;100.00
55679;BME280;41573;51.446;-2.018;2023-04-19T02:13:39;101690.19;;;10.22;100.00
55679;BME280;41573;51.446;-2.018;2023-04-19T02:16:04;101699.03;;;10.23;100.00
55679;BME280;41573;51.446;-2.018;2023-04-19T02:18:31;101702.00;;;10.15;100.00
55679;BME280;41573;51.446;-2.018;2023-04-19T02:20:58;101697.66;;;10.12;100.00
55679;BME280;41573;51.446;-2.018;2023-04-19T02:23:23;101701.88;;;10.18;100.00
55679;BME280;41573;51.446;-2.018;2023-04-19T02:25:52;101697.66;;;10.12;100.00
55679;BME280;41573;51.446;-2.018;2023-04-19T02:28:18;101701.63;;;10.02;100.00
55679;BME280;41573;51.446;-2.018;2023-04-19T02:30:44;101701.00;;;9.95;100.00
55679;BME280;41573;51.446;-2.018;2023-04-19T02:33:11;101701.06;;;9.94;100.00
55679;BME280;41573;51.446;-2.018;2023-04-19T02:35:37;101707.38;;;9.91;100.00
55679;BME280;41573;51.446;-2.018;2023-04-19T02:38:03;101709.28;;;9.88;100.00
55679;BME280;41573;51.446;-2.018;2023-04-19T02:40:31;101711.03;;;9.89;100.00
55679;BME280;41573;51.446;-2.018;2023-04-19T02:42:57;101713.09;;;9.80;100.00
55679;BME280;41573;51.446;-2.018;2023-04-19T02:45:22;101716.81;;;9.76;100.00
55679;BME280;41573;51.446;-2.018;2023-04-19T02:47:47;101727.44;;;9.76;100.00
55679;BME280;41573;51.446;-2.018;2023-04-19T02:50:15;101716.88;;;9.75;100.00
55679;BME280;41573;51.446;-2.018;2023-04-19T02:52:41;101718.88;;;9.70;100.00
55679;BME280;41573;51.446;-2.018;2023-04-19T02:55:13;101719.53;;;9.75;100.00
55679;BME280;41573;51.446;-2.018;2023-04-19T02:57:39;101719.66;;;9.72;100.00
55679;BME280;41573;51.446;-2.018;2023-04-19T03:00:07;101713.59;;;9.68;100.00
55679;BME280;41573;51.446;-2.018;2023-04-19T03:02:35;101721.53;;;9.70;100.00
55679;BME280;41573;51.446;-2.018;2023-04-19T03:05:01;101720.53;;;9.72;100.00
55679;BME280;41573;51.446;-2.018;2023-04-19T03:07:29;101717.91;;;9.71;100.00
55679;BME280;41573;51.446;-2.018;2023-04-19T03:09:55;101718.94;;;9.68;100.00
55679;BME280;41573;51.446;-2.018;2023-04-19T03:12:21;101725.88;;;9.72;100.00
55679;BME280;41573;51.446;-2.018;2023-04-19T03:14:48;101721.84;;;9.60;100.00
55679;BME280;41573;51.446;-2.018;2023-04-19T03:17:14;101725.28;;;9.64;100.00
55679;BME280;41573;51.446;-2.018;2023-04-19T03:19:40;101732.22;;;9.68;100.00
55679;BME280;41573;51.446;-2.018;2023-04-19T03:22:06;101729.78;;;9.62;100.00
55679;BME280;41573;51.446;-2.018;2023-04-19T03:24:31;101745.53;;;9.68;100.00
55679;BME280;41573;51.446;-2.018;2023-04-19T03:26:57;101748.97;;;9.70;100.00
55679;BME280;41573;51.446;-2.018;2023-04-19T03:29:23;101744.63;;;9.68;100.00
55679;BME280;41573;51.446;-2.018;2023-04-19T03:31:48;101749.09;;;9.67;100.00
55679;BME280;41573;51.446;-2.018;2023-04-19T03:34:14;101747.22;;;9.69;100.00
55679;BME280;41573;51.446;-2.018;2023-04-19T03:36:40;101748.25;;;9.66;100.00
55679;BME280;41573;51.446;-2.018;2023-04-19T03:39:05;101752.78;;;9.63;100.00
55679;BME280;41573;51.446;-2.018;2023-04-19T03:41:31;101754.59;;;9.62;100.00
55679;BME280;41573;51.446;-2.018;2023-04-19T03:43:57;101751.06;;;9.62;100.00
55679;BME280;41573;51.446;-2.018;2023-04-19T03:46:22;101739.28;;;9.45;100.00
55679;BME280;41573;51.446;-2.018;2023-04-19T03:48:52;101752.28;;;9.53;100.00
55679;BME280;41573;51.446;-2.018;2023-04-19T03:51:19;101758.50;;;9.52;100.00
55679;BME280;41573;51.446;-2.018;2023-04-19T03:53:44;101759.66;;;9.45;100.00
55679;BME280;41573;51.446;-2.018;2023-04-19T03:56:10;101750.75;;;9.46;100.00
55679;BME280;41573;51.446;-2.018;2023-04-19T03:58:37;101763.31;;;9.42;100.00
55679;BME280;41573;51.446;-2.018;2023-04-19T04:01:03;101767.81;;;9.40;100.00
55679;BME280;41573;51.446;-2.018;2023-04-19T04:03:31;101770.84;;;9.29;100.00
55679;BME280;41573;51.446;-2.018;2023-04-19T04:05:57;101775.97;;;9.36;100.00
55679;BME280;41573;51.446;-2.018;2023-04-19T04:08:22;101778.63;;;9.36;100.00
55679;BME280;41573;51.446;-2.018;2023-04-19T04:10:48;101773.47;;;9.31;100.00
55679;BME280;41573;51.446;-2.018;2023-04-19T04:13:14;101772.75;;;9.26;100.00
55679;BME280;41573;51.446;-2.018;2023-04-19T04:15:40;101768.34;;;9.25;100.00
55679;BME280;41573;51.446;-2.018;2023-04-19T04:18:05;101774.66;;;9.22;100.00
55679;BME280;41573;51.446;-2.018;2023-04-19T04:20:31;101775.72;;;9.17;100.00
55679;BME280;41573;51.446;-2.018;2023-04-19T04:22:56;101781.16;;;9.13;100.00
55679;BME280;41573;51.446;-2.018;2023-04-19T04:25:24;101775.03;;;9.11;100.00
55679;BME280;41573;51.446;-2.018;2023-04-19T04:27:51;101775.34;;;9.02;100.00
55679;BME280;41573;51.446;-2.018;2023-04-19T04:30:21;101779.81;;;9.02;100.00
55679;BME280;41573;51.446;-2.018;2023-04-19T04:33:04;101782.41;;;9.03;100.00
55679;BME280;41573;51.446;-2.018;2023-04-19T04:35:30;101782.25;;;9.08;100.00
55679;BME280;41573;51.446;-2.018;2023-04-19T04:37:57;101784.91;;;9.08;100.00
55679;BME280;41573;51.446;-2.018;2023-04-19T04:40:27;101791.03;;;9.10;100.00
55679;BME280;41573;51.446;-2.018;2023-04-19T04:42:53;101797.09;;;9.13;100.00
55679;BME280;41573;51.446;-2.018;2023-04-19T04:45:18;101801.34;;;9.19;100.00
55679;BME280;41573;51.446;-2.018;2023-04-19T04:47:44;101806.59;;;9.21;100.00
55679;BME280;41573;51.446;-2.018;2023-04-19T04:50:10;101806.72;;;9.18;100.00
55679;BME280;41573;51.446;-2.018;2023-04-19T04:52:37;101813.53;;;9.25;100.00
55679;BME280;41573;51.446;-2.018;2023-04-19T04:55:09;101814.38;;;9.27;100.00
55679;BME280;41573;51.446;-2.018;2023-04-19T04:57:35;101825.69;;;9.32;100.00
55679;BME280;41573;51.446;-2.018;2023-04-19T05:00:01;101832.72;;;9.35;100.00
55679;BME280;41573;51.446;-2.018;2023-04-19T05:02:28;101838.56;;;9.44;100.00
55679;BME280;41573;51.446;-2.018;2023-04-19T05:04:54;101829.75;;;9.44;100.00
55679;BME280;41573;51.446;-2.018;2023-04-19T05:07:21;101841.59;;;9.59;100.00
55679;BME280;41573;51.446;-2.018;2023-04-19T05:09:46;101827.56;;;9.55;100.00
55679;BME280;41573;51.446;-2.018;2023-04-19T05:12:11;101831.72;;;9.62;100.00
55679;BME280;41573;51.446;-2.018;2023-04-19T05:14:37;101834.44;;;9.61;100.00
55679;BME280;41573;51.446;-2.018;2023-04-19T05:17:06;101834.34;;;9.64;100.00
55679;BME280;41573;51.446;-2.018;2023-04-19T05:19:32;101826.41;;;9.62;100.00
55679;BME280;41573;51.446;-2.018;2023-04-19T05:21:57;101833.50;;;9.62;100.00
55679;BME280;41573;51.446;-2.018;2023-04-19T05:24:23;101834.22;;;9.67;100.00
55679;BME280;41573;51.446;-2.018;2023-04-19T05:26:48;101838.94;;;9.59;100.00
55679;BME280;41573;51.446;-2.018;2023-04-19T05:29:13;101847.16;;;9.76;100.00
55679;BME280;41573;51.446;-2.018;2023-04-19T05:31:39;101841.00;;;9.76;100.00
55679;BME280;41573;51.446;-2.018;2023-04-19T05:34:05;101848.13;;;9.75;100.00
55679;BME280;41573;51.446;-2.018;2023-04-19T05:36:32;101854.13;;;9.80;100.00
55679;BME280;41573;51.446;-2.018;2023-04-19T05:39:00;101849.56;;;9.84;100.00
55679;BME280;41573;51.446;-2.018;2023-04-19T05:41:25;101851.31;;;9.85;100.00
55679;BME280;41573;51.446;-2.018;2023-04-19T05:43:51;101859.06;;;9.91;100.00
55679;BME280;41573;51.446;-2.018;2023-04-19T05:46:16;101843.94;;;9.92;100.00
55679;BME280;41573;51.446;-2.018;2023-04-19T05:48:41;101845.69;;;9.93;100.00
55679;BME280;41573;51.446;-2.018;2023-04-19T05:51:12;101849.84;;;10.00;100.00
55679;BME280;41573;51.446;-2.018;2023-04-19T05:53:39;101848.22;;;9.96;100.00
55679;BME280;41573;51.446;-2.018;2023-04-19T05:56:05;101856.34;;;9.93;100.00
55679;BME280;41573;51.446;-2.018;2023-04-19T05:58:30;101859.47;;;10.04;100.00
55679;BME280;41573;51.446;-2.018;2023-04-19T06:00:57;101854.06;;;10.06;100.00
55679;BME280;41573;51.446;-2.018;2023-04-19T06:03:22;101848.41;;;9.91;100.00
55679;BME280;41573;51.446;-2.018;2023-04-19T06:05:47;101849.13;;;9.95;100.00
55679;BME280;41573;51.446;-2.018;2023-04-19T06:08:13;101850.88;;;9.96;100.00
55679;BME280;41573;51.446;-2.018;2023-04-19T06:10:40;101854.38;;;9.98;100.00
55679;BME280;41573;51.446;-2.018;2023-04-19T06:13:08;101843.44;;;10.06;100.00
55679;BME280;41573;51.446;-2.018;2023-04-19T06:15:33;101844.66;;;10.21;100.00
55679;BME280;41573;51.446;-2.018;2023-04-19T06:17:59;101846.44;;;10.20;100.00
55679;BME280;41573;51.446;-2.018;2023-04-19T06:20:24;101843.16;;;10.13;100.00
55679;BME280;41573;51.446;-2.018;2023-04-19T06:22:49;101840.81;;;10.28;100.00
55679;BME280;41573;51.446;-2.018;2023-04-19T06:25:15;101832.00;;;10.26;100.00
55679;BME280;41573;51.446;-2.018;2023-04-19T06:27:40;101844.63;;;10.44;100.00
55679;BME280;41573;51.446;-2.018;2023-04-19T06:30:06;101833.19;;;10.42;100.00
55679;BME280;41573;51.446;-2.018;2023-04-19T06:32:32;101843.72;;;10.45;100.00
55679;BME280;41573;51.446;-2.018;2023-04-19T06:34:58;101827.28;;;10.34;100.00
55679;BME280;41573;51.446;-2.018;2023-04-19T06:37:23;101836.41;;;10.50;100.00
55679;BME280;41573;51.446;-2.018;2023-04-19T06:39:49;101834.16;;;10.40;100.00
55679;BME280;41573;51.446;-2.018;2023-04-19T06:42:14;101836.66;;;10.44;100.00
55679;BME280;41573;51.446;-2.018;2023-04-19T06:44:39;101832.31;;;10.42;100.00
55679;BME280;41573;51.446;-2.018;2023-04-19T06:47:05;101830.41;;;10.45;100.00
55679;BME280;41573;51.446;-2.018;2023-04-19T06:49:30;101837.28;;;10.51;100.00
55679;BME280;41573;51.446;-2.018;2023-04-19T06:51:55;101824.28;;;10.43;100.00
55679;BME280;41573;51.446;-2.018;2023-04-19T06:54:22;101825.84;;;10.49;100.00
55679;BME280;41573;51.446;-2.018;2023-04-19T06:56:48;101829.22;;;10.52;100.00
55679;BME280;41573;51.446;-2.018;2023-04-19T06:59:16;101819.19;;;10.59;100.00
55679;BME280;41573;51.446;-2.018;2023-04-19T07:01:42;101819.69;;;10.69;100.00
55679;BME280;41573;51.446;-2.018;2023-04-19T07:04:08;101821.31;;;10.73;100.00
55679;BME280;41573;51.446;-2.018;2023-04-19T07:06:35;101832.63;;;10.78;100.00
55679;BME280;41573;51.446;-2.018;2023-04-19T07:09:00;101836.84;;;10.84;100.00
55679;BME280;41573;51.446;-2.018;2023-04-19T07:11:26;101827.16;;;10.81;100.00
55679;BME280;41573;51.446;-2.018;2023-04-19T07:13:51;101819.06;;;10.84;100.00
55679;BME280;41573;51.446;-2.018;2023-04-19T07:16:17;101814.25;;;10.93;100.00
55679;BME280;41573;51.446;-2.018;2023-04-19T07:18:42;101812.53;;;10.92;100.00
55679;BME280;41573;51.446;-2.018;2023-04-19T07:21:08;101809.06;;;10.90;100.00
55679;BME280;41573;51.446;-2.018;2023-04-19T07:23:34;101811.72;;;10.90;100.00
55679;BME280;41573;51.446;-2.018;2023-04-19T07:26:00;101812.53;;;10.92;100.00
55679;BME280;41573;51.446;-2.018;2023-04-19T07:28:29;101802.31;;;10.81;100.00
55679;BME280;41573;51.446;-2.018;2023-04-19T07:30:56;101817.53;;;10.99;100.00
55679;BME280;41573;51.446;-2.018;2023-04-19T07:33:22;101811.72;;;10.90;100.00
55679;BME280;41573;51.446;-2.018;2023-04-19T07:35:49;101813.06;;;11.00;100.00
55679;BME280;41573;51.446;-2.018;2023-04-19T07:38:15;101818.53;;;10.97;100.00
55679;BME280;41573;51.446;-2.018;2023-04-19T07:40:41;101830.75;;;11.23;100.00
55679;BME280;41573;51.446;-2.018;2023-04-19T07:43:07;101828.03;;;11.25;100.00
55679;BME280;41573;51.446;-2.018;2023-04-19T07:45:32;101831.00;;;11.17;100.00
55679;BME280;41573;51.446;-2.018;2023-04-19T07:47:58;101817.50;;;11.21;100.00
55679;BME280;41573;51.446;-2.018;2023-04-19T07:50:24;101821.09;;;11.20;100.00
55679;BME280;41573;51.446;-2.018;2023-04-19T07:52:51;101816.69;;;11.19;100.00
55679;BME280;41573;51.446;-2.018;2023-04-19T07:55:16;101817.50;;;11.21;100.00
55679;BME280;41573;51.446;-2.018;2023-04-19T07:57:41;101821.63;;;11.29;100.00
55679;BME280;41573;51.446;-2.018;2023-04-19T08:00:15;101823.81;;;11.39;100.00
55679;BME280;41573;51.446;-2.018;2023-04-19T08:02:44;101810.78;;;11.52;100.00
55679;BME280;41573;51.446;-2.018;2023-04-19T08:05:11;101803.00;;;11.48;100.00
55679;BME280;41573;51.446;-2.018;2023-04-19T08:07:38;101807.06;;;11.56;100.00
55679;BME280;41573;51.446;-2.018;2023-04-19T08:10:05;101796.00;;;11.45;100.00
55679;BME280;41573;51.446;-2.018;2023-04-19T08:12:31;101796.84;;;11.66;100.00
55679;BME280;41573;51.446;-2.018;2023-04-19T08:14:57;101792.56;;;11.62;100.00
55679;BME280;41573;51.446;-2.018;2023-04-19T08:17:22;101793.09;;;11.70;100.00
55679;BME280;41573;51.446;-2.018;2023-04-19T08:19:49;101785.47;;;11.82;100.00
55679;BME280;41573;51.446;-2.018;2023-04-19T08:22:15;101776.84;;;11.96;100.00
55679;BME280;41573;51.446;-2.018;2023-04-19T08:24:41;101782.03;;;11.99;100.00
55679;BME280;41573;51.446;-2.018;2023-04-19T08:27:08;101769.34;;;12.04;100.00
55679;BME280;41573;51.446;-2.018;2023-04-19T08:29:33;101771.06;;;12.05;100.00
55679;BME280;41573;51.446;-2.018;2023-04-19T08:31:59;101765.91;;;12.19;100.00
55679;BME280;41573;51.446;-2.018;2023-04-19T08:34:25;101766.00;;;12.18;100.00
55679;BME280;41573;51.446;-2.018;2023-04-19T08:36:51;101769.75;;;12.33;100.00
55679;BME280;41573;51.446;-2.018;2023-04-19T08:39:17;101757.66;;;12.43;100.00
55679;BME280;41573;51.446;-2.018;2023-04-19T08:41:43;101745.03;;;12.47;100.00
55679;BME280;41573;51.446;-2.018;2023-04-19T08:44:10;101751.00;;;12.52;100.00
55679;BME280;41573;51.446;-2.018;2023-04-19T08:46:36;101757.38;;;12.67;100.00
55679;BME280;41573;51.446;-2.018;2023-04-19T08:49:04;101742.59;;;12.77;100.00
55679;BME280;41573;51.446;-2.018;2023-04-19T08:51:31;101742.06;;;12.88;100.00
55679;BME280;41573;51.446;-2.018;2023-04-19T08:53:57;101735.53;;;12.76;100.00
55679;BME280;41573;51.446;-2.018;2023-04-19T08:56:25;101741.09;;;12.89;100.00
55679;BME280;41573;51.446;-2.018;2023-04-19T08:58:51;101740.56;;;12.82;100.00
55679;BME280;41573;51.446;-2.018;2023-04-19T09:01:17;101727.41;;;12.77;100.00
55679;BME280;41573;51.446;-2.018;2023-04-19T09:03:43;101732.22;;;12.88;100.00
55679;BME280;41573;51.446;-2.018;2023-04-19T09:06:11;101732.91;;;13.09;100.00
55679;BME280;41573;51.446;-2.018;2023-04-19T09:08:38;101724.00;;;13.09;100.00
55679;BME280;41573;51.446;-2.018;2023-04-19T09:11:07;101717.19;;;13.54;100.00
55679;BME280;41573;51.446;-2.018;2023-04-19T09:13:33;101718.25;;;14.00;100.00
55679;BME280;41573;51.446;-2.018;2023-04-19T09:16:05;101712.72;;;14.19;100.00
55679;BME280;41573;51.446;-2.018;2023-04-19T09:18:32;101710.38;;;14.28;100.00
55679;BME280;41573;51.446;-2.018;2023-04-19T09:20:58;101708.75;;;14.56;100.00
55679;BME280;41573;51.446;-2.018;2023-04-19T09:23:26;101695.63;;;14.82;100.00
55679;BME280;41573;51.446;-2.018;2023-04-19T09:26:00;101690.75;;;14.89;100.00
55679;BME280;41573;51.446;-2.018;2023-04-19T09:28:29;101687.53;;;15.12;100.00
55679;BME280;41573;51.446;-2.018;2023-04-19T09:30:55;101677.47;;;15.16;100.00
55679;BME280;41573;51.446;-2.018;2023-04-19T09:35:57;101686.00;;;15.23;100.00
55679;BME280;41573;51.446;-2.018;2023-04-19T09:38:24;101691.47;;;15.21;100.00
55679;BME280;41573;51.446;-2.018;2023-04-19T09:40:51;101686.38;;;15.45;100.00
55679;BME280;41573;51.446;-2.018;2023-04-19T09:43:24;101689.72;;;15.49;100.00
55679;BME280;41573;51.446;-2.018;2023-04-19T09:45:52;101672.56;;;15.37;100.00
55679;BME280;41573;51.446;-2.018;2023-04-19T09:48:18;101666.53;;;15.48;100.00
55679;BME280;41573;51.446;-2.018;2023-04-19T09:50:55;101656.66;;;15.48;100.00
55679;BME280;41573;51.446;-2.018;2023-04-19T09:53:22;101665.94;;;15.43;100.00
55679;BME280;41573;51.446;-2.018;2023-04-19T09:55:48;101663.84;;;15.48;100.00
55679;BME280;41573;51.446;-2.018;2023-04-19T09:58:14;101647.25;;;15.56;100.00
55679;BME280;41573;51.446;-2.018;2023-04-19T10:00:40;101649.03;;;15.69;100.00
55679;BME280;41573;51.446;-2.018;2023-04-19T10:03:09;101651.16;;;15.64;100.00
55679;BME280;41573;51.446;-2.018;2023-04-19T10:05:39;101649.25;;;15.66;100.00
55679;BME280;41573;51.446;-2.018;2023-04-19T10:08:09;101654.28;;;15.85;100.00
55679;BME280;41573;51.446;-2.018;2023-04-19T10:10:35;101647.25;;;15.97;100.00
55679;BME280;41573;51.446;-2.018;2023-04-19T10:13:03;101642.69;;;15.85;100.00
55679;BME280;41573;51.446;-2.018;2023-04-19T10:15:31;101650.19;;;15.80;100.00
55679;BME280;41573;51.446;-2.018;2023-04-19T10:17:57;101638.91;;;15.88;100.00
55679;BME280;41573;51.446;-2.018;2023-04-19T10:20:27;101640.81;;;16.00;100.00
55679;BME280;41573;51.446;-2.018;2023-04-19T10:22:55;101629.28;;;16.25;100.00
55679;BME280;41573;51.446;-2.018;2023-04-19T10:25:27;101623.69;;;16.28;100.00
55679;BME280;41573;51.446;-2.018;2023-04-19T10:27:53;101616.84;;;16.50;100.00
55679;BME280;41573;51.446;-2.018;2023-04-19T10:30:21;101605.69;;;16.56;100.00
55679;BME280;41573;51.446;-2.018;2023-04-19T10:32:58;101612.75;;;16.57;100.00
55679;BME280;41573;51.446;-2.018;2023-04-19T10:35:27;101608.59;;;16.79;100.00
55679;BME280;41573;51.446;-2.018;2023-04-19T10:38:11;101594.50;;;16.88;100.00
55679;BME280;41573;51.446;-2.018;2023-04-19T10:43:15;101593.84;;;17.10;100.00
55679;BME280;41573;51.446;-2.018;2023-04-19T10:45:42;101586.31;;;17.02;100.00
55679;BME280;41573;51.446;-2.018;2023-04-19T10:51:16;101580.50;;;16.83;100.00
55679;BME280;41573;51.446;-2.018;2023-04-19T10:53:55;101592.13;;;16.96;100.00
55679;BME280;41573;51.446;-2.018;2023-04-19T11:01:37;101552.81;;;17.44;100.00
55679;BME280;41573;51.446;-2.018;2023-04-19T11:09:23;101552.88;;;17.79;100.00
55679;BME280;41573;51.446;-2.018;2023-04-19T11:11:49;101543.78;;;17.45;100.00
55679;BME280;41573;51.446;-2.018;2023-04-19T11:14:15;101552.78;;;17.19;100.00
55679;BME280;41573;51.446;-2.018;2023-04-19T11:16:41;101542.28;;;17.40;100.00
55679;BME280;41573;51.446;-2.018;2023-04-19T11:19:06;101551.22;;;17.04;100.00
55679;BME280;41573;51.446;-2.018;2023-04-19T11:21:32;101545.19;;;16.87;100.00
55679;BME280;41573;51.446;-2.018;2023-04-19T11:24:10;101548.22;;;16.70;100.00
55679;BME280;41573;51.446;-2.018;2023-04-19T11:26:36;101539.59;;;17.03;100.00
55679;BME280;41573;51.446;-2.018;2023-04-19T11:29:02;101545.00;;;16.91;100.00
55679;BME280;41573;51.446;-2.018;2023-04-19T11:31:28;101530.41;;;17.19;100.00
55679;BME280;41573;51.446;-2.018;2023-04-19T11:33:58;101533.28;;;17.29;100.00
55679;BME280;41573;51.446;-2.018;2023-04-19T11:36:26;101515.94;;;17.57;100.00
55679;BME280;41573;51.446;-2.018;2023-04-19T11:38:52;101507.19;;;17.78;100.00
55679;BME280;41573;51.446;-2.018;2023-04-19T11:41:18;101495.44;;;17.79;100.00
55679;BME280;41573;51.446;-2.018;2023-04-19T11:43:43;101506.09;;;18.04;100.00
55679;BME280;41573;51.446;-2.018;2023-04-19T11:46:11;101494.28;;;18.52;100.00
55679;BME280;41573;51.446;-2.018;2023-04-19T11:48:57;101496.09;;;18.74;100.00
55679;BME280;41573;51.446;-2.018;2023-04-19T11:51:23;101490.59;;;18.65;100.00
55679;BME280;41573;51.446;-2.018;2023-04-19T11:53:49;101497.97;;;18.63;100.00
55679;BME280;41573;51.446;-2.018;2023-04-19T11:56:14;101498.59;;;18.55;100.00
55679;BME280;41573;51.446;-2.018;2023-04-19T11:58:45;101505.19;;;18.51;100.00
55679;BME280;41573;51.446;-2.018;2023-04-19T12:01:20;101498.09;;;18.61;100.00
55679;BME280;41573;51.446;-2.018;2023-04-19T12:03:48;101487.38;;;18.14;100.00
55679;BME280;41573;51.446;-2.018;2023-04-19T12:08:48;101493.41;;;18.40;100.00
55679;BME280;41573;51.446;-2.018;2023-04-19T12:11:15;101491.88;;;17.91;100.00
55679;BME280;41573;51.446;-2.018;2023-04-19T12:13:41;101506.22;;;18.03;100.00
55679;BME280;41573;51.446;-2.018;2023-04-19T12:16:09;101503.53;;;17.79;100.00
55679;BME280;41573;51.446;-2.018;2023-04-19T12:18:48;101497.81;;;17.59;100.00
55679;BME280;41573;51.446;-2.018;2023-04-19T12:21:34;101504.41;;;17.55;100.00
55679;BME280;41573;51.446;-2.018;2023-04-19T12:24:00;101499.78;;;17.57;100.00
55679;BME280;41573;51.446;-2.018;2023-04-19T12:26:27;101486.81;;;17.62;100.00
55679;BME280;41573;51.446;-2.018;2023-04-19T12:28:53;101490.88;;;18.03;100.00
55679;BME280;41573;51.446;-2.018;2023-04-19T12:31:19;101487.34;;;17.43;100.00
55679;BME280;41573;51.446;-2.018;2023-04-19T12:33:45;101480.06;;;17.32;100.00
55679;BME280;41573;51.446;-2.018;2023-04-19T12:36:10;101485.31;;;17.58;100.00
55679;BME280;41573;51.446;-2.018;2023-04-19T12:38:36;101476.53;;;17.32;100.00
55679;BME280;41573;51.446;-2.018;2023-04-19T12:41:01;101482.44;;;17.37;100.00
55679;BME280;41573;51.446;-2.018;2023-04-19T12:43:27;101480.75;;;17.71;100.00
55679;BME280;41573;51.446;-2.018;2023-04-19T12:45:54;101477.00;;;17.50;100.00
55679;BME280;41573;51.446;-2.018;2023-04-19T12:48:19;101468.31;;;17.57;100.00
55679;BME280;41573;51.446;-2.018;2023-04-19T12:50:45;101470.84;;;17.83;100.00
55679;BME280;41573;51.446;-2.018;2023-04-19T12:53:10;101468.25;;;17.70;100.00
55679;BME280;41573;51.446;-2.018;2023-04-19T12:55:36;101465.22;;;17.51;100.00